Flight Track Log - Related Links

Times and Time Zones

All times are in EDT time to prevent confusion due to time zone crossing. See the FLG3897 flight status page for this flight to view local times or setup timezone preferences in your user account.

Time Position Orientation Groundspeed Altitude Reporting Facility
EDT Latitude Longitude Course Direction KTS MPH feet Rate Location/Type
Fri 04:14:44 PM 39.0333 -84.6667 100° East 157 181 1,700  Level Cincinnati TRACON
Fri 04:15:38 PM 39.0167 -84.6167 113° Southeast 229 264 3,900 2,500 Climbing Cincinnati TRACON
Fri 04:16:44 PM 39.0000 -84.5167 102° East 288 331 6,700 2,095 Climbing Cincinnati TRACON
Fri 04:17:44 PM 38.9667 -84.4167 113° Southeast 296 341 8,300 1,800 Climbing Cincinnati TRACON
Fri 04:18:24 PM 38.9539 -84.3439 103° East 308 354 9,700 1,631 Climbing Indianapolis Center
Fri 04:19:27 PM 38.9233 -84.2236 108° East 354 407 11,100 1,776 Climbing Indianapolis Center
Fri 04:20:00 PM 38.8620 -84.0010 100° East  Level FlightAware Approximate
Fri 04:20:29 PM 38.8925 -84.0875 106° East 394 453 13,400  Level Indianapolis Center
Fri 04:21:31 PM 38.9239 -83.9411 75° East 427 491 15,400 1,645 Climbing Indianapolis Center
Fri 04:22:33 PM 38.9606 -83.7922 72° East 435 501 16,800 1,403 Climbing Indianapolis Center
Fri 04:23:35 PM 38.9994 -83.6344 72° East 456 525 18,300 1,403 Climbing Indianapolis Center
Fri 04:24:37 PM 39.0375 -83.4750 73° East 464 534 19,700 1,355 Climbing Indianapolis Center
Fri 04:25:39 PM 39.0836 -83.2836 73° East 475 547 21,100 1,161 Climbing Indianapolis Center
Fri 04:26:41 PM 39.1208 -83.1250 73° East 485 558 22,100 919 Climbing Indianapolis Center
Fri 04:27:43 PM 39.1608 -82.9550 73° East 492 566 23,000 871 Climbing Indianapolis Center
Fri 04:28:45 PM 39.1892 -82.7697 79° East 495 570 23,900 919 Climbing Indianapolis Center
Fri 04:29:47 PM 39.1883 -82.5942 90° East 488 562 24,900 1,016 Climbing Indianapolis Center
Fri 04:30:49 PM 39.1856 -82.3936 91° East 491 565 26,000 968 Climbing Indianapolis Center
Fri 04:31:51 PM 39.1836 -82.2192 91° East 487 560 26,900 484 Climbing Indianapolis Center
Fri 04:32:53 PM 39.2317 -82.0461 70° East 524 603 27,000 -581 Climbing Indianapolis Center
Fri 04:33:55 PM 39.3006 -81.8756 62° Northeast 533 613 25,700 -1,403 Descending Indianapolis Center
Fri 04:34:57 PM 39.3694 -81.7056 62° Northeast 530 610 24,100 -1,488 Descending Indianapolis Center
Fri 04:36:00 PM 39.4336 -81.5447 63° Northeast 506 582 22,600 -1,500 Descending Indianapolis Center
Fri 04:36:57 PM 39.5036 -81.3739 62° Northeast 494 568 21,100 -821 Descending Cleveland Center
Fri 04:37:57 PM 39.5836 -81.2375 53° Northeast 480 552 21,000 -1,000 Descending Cleveland Center
Fri 04:38:57 PM 39.6822 -81.1361 38° Northeast 460 529 19,100 -2,100 Descending Cleveland Center
Fri 04:39:57 PM 39.7764 -81.0394 38° Northeast 442 509 16,800 -2,150 Descending Cleveland Center
Fri 04:40:57 PM 39.8664 -80.9481 38° Northeast 424 488 14,800 -1,950 Descending Cleveland Center
Fri 04:41:57 PM 39.9522 -80.8592 38° Northeast 413 475 12,900 -1,900 Descending Cleveland Center
Fri 04:42:57 PM 40.0336 -80.7675 41° Northeast 401 461 11,000 -1,450 Descending Cleveland Center
Fri 04:43:57 PM 40.1131 -80.6753 42° Northeast 390 449 10,000 -500 Descending Cleveland Center
Fri 04:44:57 PM 40.1861 -80.5911 41° Northeast 372 428 10,000 -400 Level Cleveland Center
Fri 04:45:57 PM 40.2569 -80.5122 40° Northeast 344 396 9,200 -950 Descending Cleveland Center
Fri 04:46:57 PM 40.3233 -80.4306 43° Northeast 332 382 8,100 -1,100 Descending Cleveland Center
Fri 04:47:57 PM 40.3567 -80.3461 63° Northeast 301 346 7,000 -1,432 Descending Cleveland Center
Fri 04:48:25 PM 40.3756 -80.2925 65° Northeast 292 336 6,000 -1,224 Descending FAA TRACON SMA TRACON (SMA)
Fri 04:48:46 PM 40.3878 -80.2578 65° Northeast 292 336 6,000 -150 Level FAA TRACON SMA TRACON (SMA)
Fri 04:49:05 PM 40.3972 -80.2247 69° East 287 330 5,900 -923 Descending FAA TRACON SMA TRACON (SMA)
Fri 04:49:25 PM 40.4031 -80.1942 76° East 289 333 5,400 -1,650 Descending FAA TRACON SMA TRACON (SMA)
Fri 04:49:45 PM 40.4100 -80.1553 77° East 283 326 4,800 -1,500 Descending FAA TRACON SMA TRACON (SMA)
Fri 04:50:05 PM 40.4133 -80.1244 82° East 282 325 4,400 -800 Descending FAA TRACON SMA TRACON (SMA)
Fri 04:50:45 PM 40.4164 -80.0550 87° East 274 315 4,000 -492 Descending FAA TRACON SMA TRACON (SMA)
Fri 04:51:06 PM 40.4236 -80.0272 71° East 272 313 3,900  Descending FAA TRACON SMA TRACON (SMA)
Fri 04:51:25 PM 40.4406 -80.0106 37° Northeast 240 276 4,000  Climbing FAA TRACON SMA TRACON (SMA)
Fri 04:51:45 PM 40.4664 -80.0128 356° North 233 268 3,900 -585 Descending FAA TRACON SMA TRACON (SMA)
Fri 04:52:06 PM 40.4797 -80.0300 316° Northwest 219 252 3,600 -1,050 Descending FAA TRACON SMA TRACON (SMA)
Fri 04:52:25 PM 40.4822 -80.0533 278° West 206 237 3,200 -1,050 Descending FAA TRACON SMA TRACON (SMA)
Fri 04:52:46 PM 40.4814 -80.0817 268° West 197 227 2,900 -800 Descending FAA TRACON SMA TRACON (SMA)
Fri 04:53:25 PM 40.4822 -80.1206 272° West 163 188 2,400 -700 Descending FAA TRACON SMA TRACON (SMA)
Fri 04:53:46 PM 40.4831 -80.1408 273° West 141 162 2,200 -750 Descending FAA TRACON SMA TRACON (SMA)
Fri 04:54:05 PM 40.4836 -80.1550 273° West 125 144 1,900 -600 Descending FAA TRACON SMA TRACON (SMA)
Fri 04:54:26 PM 40.4842 -80.1683 273° West 121 139 1,800 -600 Descending FAA TRACON SMA TRACON (SMA)
Fri 04:54:45 PM 40.4847 -80.1856 272° West 122 140 1,500 -947 Descending FAA TRACON SMA TRACON (SMA)

Login

Don't have an account? Register now (free) for customized features, flight alerts, and more!